sensor_id;sensor_type;location;lat;lon;timestamp;temperature;humidity
17364;DHT22;8799;43.594;13.526;2022-10-26T00:01:03;21.50;99.90
17364;DHT22;8799;43.594;13.526;2022-10-26T00:03:32;21.50;99.90
17364;DHT22;8799;43.594;13.526;2022-10-26T00:06:07;21.50;99.90
17364;DHT22;8799;43.594;13.526;2022-10-26T00:08:36;21.50;99.90
17364;DHT22;8799;43.594;13.526;2022-10-26T00:11:06;21.50;99.90
17364;DHT22;8799;43.594;13.526;2022-10-26T00:13:35;21.50;99.90
17364;DHT22;8799;43.594;13.526;2022-10-26T00:16:07;21.50;99.90
17364;DHT22;8799;43.594;13.526;2022-10-26T00:18:35;21.50;99.90
17364;DHT22;8799;43.594;13.526;2022-10-26T00:21:04;21.50;99.90
17364;DHT22;8799;43.594;13.526;2022-10-26T00:23:32;21.50;99.90
17364;DHT22;8799;43.594;13.526;2022-10-26T00:26:00;21.50;99.90
17364;DHT22;8799;43.594;13.526;2022-10-26T00:28:29;21.50;99.90
17364;DHT22;8799;43.594;13.526;2022-10-26T00:31:01;21.50;99.90
17364;DHT22;8799;43.594;13.526;2022-10-26T00:33:29;21.50;99.90
17364;DHT22;8799;43.594;13.526;2022-10-26T00:36:06;21.50;99.90
17364;DHT22;8799;43.594;13.526;2022-10-26T00:41:13;21.50;99.90
17364;DHT22;8799;43.594;13.526;2022-10-26T00:43:43;21.50;99.90
17364;DHT22;8799;43.594;13.526;2022-10-26T00:46:15;21.50;99.90
17364;DHT22;8799;43.594;13.526;2022-10-26T00:48:48;21.50;99.90
17364;DHT22;8799;43.594;13.526;2022-10-26T00:51:20;21.50;99.90
17364;DHT22;8799;43.594;13.526;2022-10-26T00:53:50;21.60;99.90
17364;DHT22;8799;43.594;13.526;2022-10-26T00:56:18;21.50;99.90
17364;DHT22;8799;43.594;13.526;2022-10-26T00:58:49;21.50;99.90
17364;DHT22;8799;43.594;13.526;2022-10-26T01:01:17;21.50;99.90
17364;DHT22;8799;43.594;13.526;2022-10-26T01:03:45;21.50;99.90
17364;DHT22;8799;43.594;13.526;2022-10-26T01:06:14;21.60;99.90
17364;DHT22;8799;43.594;13.526;2022-10-26T01:08:43;21.50;99.90
17364;DHT22;8799;43.594;13.526;2022-10-26T01:11:11;21.50;99.90
17364;DHT22;8799;43.594;13.526;2022-10-26T01:13:41;21.50;99.90
17364;DHT22;8799;43.594;13.526;2022-10-26T01:16:28;21.50;99.90
17364;DHT22;8799;43.594;13.526;2022-10-26T01:19:11;21.50;99.90
17364;DHT22;8799;43.594;13.526;2022-10-26T01:21:49;21.50;99.90
17364;DHT22;8799;43.594;13.526;2022-10-26T01:24:48;21.50;99.90
17364;DHT22;8799;43.594;13.526;2022-10-26T01:27:22;21.50;99.90
17364;DHT22;8799;43.594;13.526;2022-10-26T01:30:14;21.50;99.90
17364;DHT22;8799;43.594;13.526;2022-10-26T01:32:47;21.50;99.90
17364;DHT22;8799;43.594;13.526;2022-10-26T01:35:22;21.50;99.90
17364;DHT22;8799;43.594;13.526;2022-10-26T01:37:56;21.50;99.90
17364;DHT22;8799;43.594;13.526;2022-10-26T01:40:30;21.50;99.90
17364;DHT22;8799;43.594;13.526;2022-10-26T01:43:03;21.50;99.90
17364;DHT22;8799;43.594;13.526;2022-10-26T01:45:36;21.50;99.90
17364;DHT22;8799;43.594;13.526;2022-10-26T01:48:07;21.50;99.90
17364;DHT22;8799;43.594;13.526;2022-10-26T01:50:36;21.50;99.90
17364;DHT22;8799;43.594;13.526;2022-10-26T01:53:05;21.50;99.90
17364;DHT22;8799;43.594;13.526;2022-10-26T01:55:43;21.50;99.90
17364;DHT22;8799;43.594;13.526;2022-10-26T02:01:47;21.50;99.90
17364;DHT22;8799;43.594;13.526;2022-10-26T02:04:29;21.50;99.90
17364;DHT22;8799;43.594;13.526;2022-10-26T02:07:02;21.50;99.90
17364;DHT22;8799;43.594;13.526;2022-10-26T02:09:40;21.50;99.90
17364;DHT22;8799;43.594;13.526;2022-10-26T02:12:17;21.50;99.90
17364;DHT22;8799;43.594;13.526;2022-10-26T02:14:48;21.50;99.90
17364;DHT22;8799;43.594;13.526;2022-10-26T02:17:27;21.50;99.90
17364;DHT22;8799;43.594;13.526;2022-10-26T02:19:59;21.50;99.90
17364;DHT22;8799;43.594;13.526;2022-10-26T02:22:31;21.50;99.90
17364;DHT22;8799;43.594;13.526;2022-10-26T02:25:06;21.50;99.90
17364;DHT22;8799;43.594;13.526;2022-10-26T02:27:38;21.50;99.90
17364;DHT22;8799;43.594;13.526;2022-10-26T02:30:09;21.50;99.90
17364;DHT22;8799;43.594;13.526;2022-10-26T02:32:43;21.50;99.90
17364;DHT22;8799;43.594;13.526;2022-10-26T02:35:13;21.50;99.90
17364;DHT22;8799;43.594;13.526;2022-10-26T02:37:44;21.50;99.90
17364;DHT22;8799;43.594;13.526;2022-10-26T02:40:15;21.50;99.90
17364;DHT22;8799;43.594;13.526;2022-10-26T02:42:46;21.50;99.90
17364;DHT22;8799;43.594;13.526;2022-10-26T02:45:16;21.50;99.90
17364;DHT22;8799;43.594;13.526;2022-10-26T02:47:47;21.50;99.90
17364;DHT22;8799;43.594;13.526;2022-10-26T02:50:16;21.50;99.90
17364;DHT22;8799;43.594;13.526;2022-10-26T02:52:50;21.50;99.90
17364;DHT22;8799;43.594;13.526;2022-10-26T02:55:26;21.50;99.90
17364;DHT22;8799;43.594;13.526;2022-10-26T02:57:58;21.50;99.90
17364;DHT22;8799;43.594;13.526;2022-10-26T03:00:28;21.50;99.90
17364;DHT22;8799;43.594;13.526;2022-10-26T03:02:59;21.50;99.90
17364;DHT22;8799;43.594;13.526;2022-10-26T03:05:29;21.40;99.90
17364;DHT22;8799;43.594;13.526;2022-10-26T03:07:59;21.50;99.90
17364;DHT22;8799;43.594;13.526;2022-10-26T03:10:27;21.50;99.90
17364;DHT22;8799;43.594;13.526;2022-10-26T03:12:56;21.50;99.90
17364;DHT22;8799;43.594;13.526;2022-10-26T03:15:23;21.40;99.90
17364;DHT22;8799;43.594;13.526;2022-10-26T03:17:55;21.50;99.90
17364;DHT22;8799;43.594;13.526;2022-10-26T03:20:25;21.40;99.90
17364;DHT22;8799;43.594;13.526;2022-10-26T03:22:53;21.50;99.90
17364;DHT22;8799;43.594;13.526;2022-10-26T03:25:22;21.40;99.90
17364;DHT22;8799;43.594;13.526;2022-10-26T03:27:56;21.40;99.90
17364;DHT22;8799;43.594;13.526;2022-10-26T03:30:24;21.40;99.90
17364;DHT22;8799;43.594;13.526;2022-10-26T03:32:52;21.50;99.90
17364;DHT22;8799;43.594;13.526;2022-10-26T03:35:20;21.40;99.90
17364;DHT22;8799;43.594;13.526;2022-10-26T03:37:50;21.40;99.90
17364;DHT22;8799;43.594;13.526;2022-10-26T03:40:18;21.50;99.90
17364;DHT22;8799;43.594;13.526;2022-10-26T03:42:46;21.40;99.90
17364;DHT22;8799;43.594;13.526;2022-10-26T03:45:14;21.40;99.90
17364;DHT22;8799;43.594;13.526;2022-10-26T03:47:43;21.40;99.90
17364;DHT22;8799;43.594;13.526;2022-10-26T03:50:13;21.40;99.90
17364;DHT22;8799;43.594;13.526;2022-10-26T03:52:41;21.40;99.90
17364;DHT22;8799;43.594;13.526;2022-10-26T03:55:12;21.40;99.90
17364;DHT22;8799;43.594;13.526;2022-10-26T03:57:40;21.40;99.90
17364;DHT22;8799;43.594;13.526;2022-10-26T04:00:09;21.40;99.90
17364;DHT22;8799;43.594;13.526;2022-10-26T04:02:37;21.40;99.90
17364;DHT22;8799;43.594;13.526;2022-10-26T04:05:07;21.40;99.90
17364;DHT22;8799;43.594;13.526;2022-10-26T04:07:35;21.40;99.90
17364;DHT22;8799;43.594;13.526;2022-10-26T04:10:04;21.40;99.90
17364;DHT22;8799;43.594;13.526;2022-10-26T04:12:36;21.40;99.90
17364;DHT22;8799;43.594;13.526;2022-10-26T04:15:05;21.40;99.90
17364;DHT22;8799;43.594;13.526;2022-10-26T04:17:33;21.40;99.90
17364;DHT22;8799;43.594;13.526;2022-10-26T04:20:01;21.40;99.90
17364;DHT22;8799;43.594;13.526;2022-10-26T04:22:29;21.40;99.90
17364;DHT22;8799;43.594;13.526;2022-10-26T04:24:57;21.40;99.90
17364;DHT22;8799;43.594;13.526;2022-10-26T04:27:25;21.40;99.90
17364;DHT22;8799;43.594;13.526;2022-10-26T04:29:55;21.40;99.90
17364;DHT22;8799;43.594;13.526;2022-10-26T04:32:23;21.40;99.90
17364;DHT22;8799;43.594;13.526;2022-10-26T04:34:51;21.40;99.90
17364;DHT22;8799;43.594;13.526;2022-10-26T04:37:19;21.40;99.90
17364;DHT22;8799;43.594;13.526;2022-10-26T04:39:47;21.40;99.90
17364;DHT22;8799;43.594;13.526;2022-10-26T04:42:15;21.40;99.90
17364;DHT22;8799;43.594;13.526;2022-10-26T04:44:42;21.40;99.90
17364;DHT22;8799;43.594;13.526;2022-10-26T04:47:12;21.40;99.90
17364;DHT22;8799;43.594;13.526;2022-10-26T04:49:40;21.30;99.90
17364;DHT22;8799;43.594;13.526;2022-10-26T04:52:08;21.40;99.90
17364;DHT22;8799;43.594;13.526;2022-10-26T04:54:37;21.40;99.90
17364;DHT22;8799;43.594;13.526;2022-10-26T04:57:05;21.40;99.90
17364;DHT22;8799;43.594;13.526;2022-10-26T04:59:32;21.40;99.90
17364;DHT22;8799;43.594;13.526;2022-10-26T05:02:01;21.30;99.90
17364;DHT22;8799;43.594;13.526;2022-10-26T05:04:31;21.30;99.90
17364;DHT22;8799;43.594;13.526;2022-10-26T05:06:59;21.30;99.90
17364;DHT22;8799;43.594;13.526;2022-10-26T05:09:26;21.30;99.90
17364;DHT22;8799;43.594;13.526;2022-10-26T05:11:55;21.30;99.90
17364;DHT22;8799;43.594;13.526;2022-10-26T05:14:23;21.30;99.90
17364;DHT22;8799;43.594;13.526;2022-10-26T05:16:51;21.30;99.90
17364;DHT22;8799;43.594;13.526;2022-10-26T05:19:20;21.30;99.90
17364;DHT22;8799;43.594;13.526;2022-10-26T05:21:49;21.30;99.90
17364;DHT22;8799;43.594;13.526;2022-10-26T05:24:18;21.30;99.90
17364;DHT22;8799;43.594;13.526;2022-10-26T05:26:46;21.30;99.90
17364;DHT22;8799;43.594;13.526;2022-10-26T05:29:14;21.30;99.90
17364;DHT22;8799;43.594;13.526;2022-10-26T05:31:41;21.40;99.90
17364;DHT22;8799;43.594;13.526;2022-10-26T05:34:10;21.40;99.90
17364;DHT22;8799;43.594;13.526;2022-10-26T05:36:38;21.30;99.90
17364;DHT22;8799;43.594;13.526;2022-10-26T05:39:09;21.20;99.90
17364;DHT22;8799;43.594;13.526;2022-10-26T05:41:37;21.10;99.90
17364;DHT22;8799;43.594;13.526;2022-10-26T05:44:05;21.00;99.90
17364;DHT22;8799;43.594;13.526;2022-10-26T05:46:32;21.00;99.90
17364;DHT22;8799;43.594;13.526;2022-10-26T05:49:00;20.90;99.90
17364;DHT22;8799;43.594;13.526;2022-10-26T05:51:31;20.90;99.90
17364;DHT22;8799;43.594;13.526;2022-10-26T05:53:59;20.80;99.90
17364;DHT22;8799;43.594;13.526;2022-10-26T05:56:35;20.80;99.90
17364;DHT22;8799;43.594;13.526;2022-10-26T05:59:04;20.70;99.90
17364;DHT22;8799;43.594;13.526;2022-10-26T06:04:35;20.70;99.90
17364;DHT22;8799;43.594;13.526;2022-10-26T06:07:09;20.70;99.90
17364;DHT22;8799;43.594;13.526;2022-10-26T06:09:38;20.70;99.90
17364;DHT22;8799;43.594;13.526;2022-10-26T06:12:11;20.60;99.90
17364;DHT22;8799;43.594;13.526;2022-10-26T06:14:41;20.60;99.90
17364;DHT22;8799;43.594;13.526;2022-10-26T06:17:19;20.60;99.90
17364;DHT22;8799;43.594;13.526;2022-10-26T06:20:20;20.60;99.90
17364;DHT22;8799;43.594;13.526;2022-10-26T06:22:59;20.70;99.90
17364;DHT22;8799;43.594;13.526;2022-10-26T06:25:38;20.70;99.90
17364;DHT22;8799;43.594;13.526;2022-10-26T06:28:18;20.80;99.90
17364;DHT22;8799;43.594;13.526;2022-10-26T06:30:49;20.80;99.90
17364;DHT22;8799;43.594;13.526;2022-10-26T06:33:19;20.90;99.90
17364;DHT22;8799;43.594;13.526;2022-10-26T06:35:56;20.90;99.90
17364;DHT22;8799;43.594;13.526;2022-10-26T06:38:26;20.90;99.90
17364;DHT22;8799;43.594;13.526;2022-10-26T06:40:56;20.90;99.90
17364;DHT22;8799;43.594;13.526;2022-10-26T06:43:30;20.90;99.90
17364;DHT22;8799;43.594;13.526;2022-10-26T06:46:03;20.90;99.90
17364;DHT22;8799;43.594;13.526;2022-10-26T06:48:42;20.90;99.90
17364;DHT22;8799;43.594;13.526;2022-10-26T06:51:14;20.90;99.90
17364;DHT22;8799;43.594;13.526;2022-10-26T06:53:45;21.00;99.90
17364;DHT22;8799;43.594;13.526;2022-10-26T06:56:14;20.90;99.90
17364;DHT22;8799;43.594;13.526;2022-10-26T06:58:45;20.90;99.90
17364;DHT22;8799;43.594;13.526;2022-10-26T07:01:17;20.90;99.90
17364;DHT22;8799;43.594;13.526;2022-10-26T07:03:46;20.90;99.90
17364;DHT22;8799;43.594;13.526;2022-10-26T07:06:14;20.90;99.90
17364;DHT22;8799;43.594;13.526;2022-10-26T07:08:43;20.90;99.90
17364;DHT22;8799;43.594;13.526;2022-10-26T07:11:15;20.90;99.90
17364;DHT22;8799;43.594;13.526;2022-10-26T07:13:45;20.90;99.90
17364;DHT22;8799;43.594;13.526;2022-10-26T07:16:14;20.80;99.90
17364;DHT22;8799;43.594;13.526;2022-10-26T07:18:42;20.80;99.90
17364;DHT22;8799;43.594;13.526;2022-10-26T07:21:10;20.80;99.90
17364;DHT22;8799;43.594;13.526;2022-10-26T07:23:42;20.80;99.90
17364;DHT22;8799;43.594;13.526;2022-10-26T07:26:10;20.80;99.90
17364;DHT22;8799;43.594;13.526;2022-10-26T07:28:46;20.80;99.90
17364;DHT22;8799;43.594;13.526;2022-10-26T07:31:14;20.80;99.90
17364;DHT22;8799;43.594;13.526;2022-10-26T07:33:42;20.80;99.90
17364;DHT22;8799;43.594;13.526;2022-10-26T07:36:10;20.80;99.90
17364;DHT22;8799;43.594;13.526;2022-10-26T07:38:37;20.90;99.90
17364;DHT22;8799;43.594;13.526;2022-10-26T07:41:05;20.90;99.90
17364;DHT22;8799;43.594;13.526;2022-10-26T07:43:33;20.90;99.90
17364;DHT22;8799;43.594;13.526;2022-10-26T07:46:05;20.90;99.90
17364;DHT22;8799;43.594;13.526;2022-10-26T07:48:33;20.90;99.90
17364;DHT22;8799;43.594;13.526;2022-10-26T07:51:01;20.90;99.90
17364;DHT22;8799;43.594;13.526;2022-10-26T07:53:29;20.90;99.90
17364;DHT22;8799;43.594;13.526;2022-10-26T07:55:57;21.00;99.90
17364;DHT22;8799;43.594;13.526;2022-10-26T07:58:25;21.00;99.90
17364;DHT22;8799;43.594;13.526;2022-10-26T08:00:54;21.00;99.90
17364;DHT22;8799;43.594;13.526;2022-10-26T08:03:24;21.00;99.90
17364;DHT22;8799;43.594;13.526;2022-10-26T08:05:52;21.00;99.90
17364;DHT22;8799;43.594;13.526;2022-10-26T08:08:20;21.00;99.90
17364;DHT22;8799;43.594;13.526;2022-10-26T08:10:48;21.00;99.90
17364;DHT22;8799;43.594;13.526;2022-10-26T08:13:17;21.00;99.90
17364;DHT22;8799;43.594;13.526;2022-10-26T08:15:44;21.00;99.90
17364;DHT22;8799;43.594;13.526;2022-10-26T08:18:13;21.00;99.90
17364;DHT22;8799;43.594;13.526;2022-10-26T08:20:42;21.00;99.90
17364;DHT22;8799;43.594;13.526;2022-10-26T08:23:11;21.00;99.90
17364;DHT22;8799;43.594;13.526;2022-10-26T08:25:39;21.00;99.90
17364;DHT22;8799;43.594;13.526;2022-10-26T08:28:07;21.00;99.90
17364;DHT22;8799;43.594;13.526;2022-10-26T08:30:35;21.00;99.90
17364;DHT22;8799;43.594;13.526;2022-10-26T08:33:05;21.00;99.90
17364;DHT22;8799;43.594;13.526;2022-10-26T08:35:34;21.00;99.90
17364;DHT22;8799;43.594;13.526;2022-10-26T08:38:03;21.00;99.90
17364;DHT22;8799;43.594;13.526;2022-10-26T08:40:37;21.00;99.90
17364;DHT22;8799;43.594;13.526;2022-10-26T08:43:12;21.00;99.90
17364;DHT22;8799;43.594;13.526;2022-10-26T08:45:45;21.00;99.90
17364;DHT22;8799;43.594;13.526;2022-10-26T08:48:19;21.00;99.90
17364;DHT22;8799;43.594;13.526;2022-10-26T08:50:52;21.00;99.90
17364;DHT22;8799;43.594;13.526;2022-10-26T08:53:26;21.00;99.90
17364;DHT22;8799;43.594;13.526;2022-10-26T08:56:00;21.00;99.90
17364;DHT22;8799;43.594;13.526;2022-10-26T08:58:32;21.10;99.90
17364;DHT22;8799;43.594;13.526;2022-10-26T09:01:03;21.00;99.90
17364;DHT22;8799;43.594;13.526;2022-10-26T09:03:32;21.10;99.90
17364;DHT22;8799;43.594;13.526;2022-10-26T09:06:15;21.10;99.90
17364;DHT22;8799;43.594;13.526;2022-10-26T09:08:53;21.10;99.90
17364;DHT22;8799;43.594;13.526;2022-10-26T09:11:32;21.10;99.90
17364;DHT22;8799;43.594;13.526;2022-10-26T09:14:09;21.10;99.90
17364;DHT22;8799;43.594;13.526;2022-10-26T09:16:48;21.10;99.90
17364;DHT22;8799;43.594;13.526;2022-10-26T09:22:11;21.10;99.90
17364;DHT22;8799;43.594;13.526;2022-10-26T09:24:51;21.10;99.90
17364;DHT22;8799;43.594;13.526;2022-10-26T09:27:25;21.10;99.90
17364;DHT22;8799;43.594;13.526;2022-10-26T09:29:54;21.10;99.90
17364;DHT22;8799;43.594;13.526;2022-10-26T09:32:25;21.10;99.90
17364;DHT22;8799;43.594;13.526;2022-10-26T09:34:59;21.20;99.90
17364;DHT22;8799;43.594;13.526;2022-10-26T09:37:31;21.20;99.90
17364;DHT22;8799;43.594;13.526;2022-10-26T09:40:07;21.20;99.90
17364;DHT22;8799;43.594;13.526;2022-10-26T09:42:40;21.20;99.90
17364;DHT22;8799;43.594;13.526;2022-10-26T09:45:14;21.20;99.90
17364;DHT22;8799;43.594;13.526;2022-10-26T09:47:46;21.20;99.90
17364;DHT22;8799;43.594;13.526;2022-10-26T09:50:21;21.20;99.90
17364;DHT22;8799;43.594;13.526;2022-10-26T09:52:50;21.20;99.90
17364;DHT22;8799;43.594;13.526;2022-10-26T09:55:20;21.20;99.90
17364;DHT22;8799;43.594;13.526;2022-10-26T09:57:50;21.20;99.90
17364;DHT22;8799;43.594;13.526;2022-10-26T10:00:21;21.20;99.90
17364;DHT22;8799;43.594;13.526;2022-10-26T10:02:51;21.30;99.90
17364;DHT22;8799;43.594;13.526;2022-10-26T10:05:28;21.30;99.90
17364;DHT22;8799;43.594;13.526;2022-10-26T10:08:14;21.30;99.90
17364;DHT22;8799;43.594;13.526;2022-10-26T10:10:59;21.30;99.90
17364;DHT22;8799;43.594;13.526;2022-10-26T10:13:30;21.30;99.90
17364;DHT22;8799;43.594;13.526;2022-10-26T10:16:10;21.30;99.90
17364;DHT22;8799;43.594;13.526;2022-10-26T10:18:39;21.30;99.90
17364;DHT22;8799;43.594;13.526;2022-10-26T10:21:08;21.30;99.90
17364;DHT22;8799;43.594;13.526;2022-10-26T10:23:47;21.30;99.90
17364;DHT22;8799;43.594;13.526;2022-10-26T10:26:18;21.40;99.90
17364;DHT22;8799;43.594;13.526;2022-10-26T10:28:55;21.30;99.90
17364;DHT22;8799;43.594;13.526;2022-10-26T10:31:29;21.30;99.90
17364;DHT22;8799;43.594;13.526;2022-10-26T10:33:57;21.30;99.90
17364;DHT22;8799;43.594;13.526;2022-10-26T10:36:27;21.30;99.90
17364;DHT22;8799;43.594;13.526;2022-10-26T10:38:56;21.30;99.90
17364;DHT22;8799;43.594;13.526;2022-10-26T10:41:28;21.30;99.90
17364;DHT22;8799;43.594;13.526;2022-10-26T10:44:06;21.30;99.90
17364;DHT22;8799;43.594;13.526;2022-10-26T10:46:34;21.30;99.90
17364;DHT22;8799;43.594;13.526;2022-10-26T10:49:06;21.30;99.90
17364;DHT22;8799;43.594;13.526;2022-10-26T10:51:43;21.30;99.90
17364;DHT22;8799;43.594;13.526;2022-10-26T10:54:20;21.30;99.90
17364;DHT22;8799;43.594;13.526;2022-10-26T10:56:53;21.30;99.90
17364;DHT22;8799;43.594;13.526;2022-10-26T11:02:39;21.30;99.90
17364;DHT22;8799;43.594;13.526;2022-10-26T11:05:21;21.30;99.90
17364;DHT22;8799;43.594;13.526;2022-10-26T11:07:53;21.30;99.90
17364;DHT22;8799;43.594;13.526;2022-10-26T11:10:26;21.30;99.90
17364;DHT22;8799;43.594;13.526;2022-10-26T11:12:59;21.30;99.90
17364;DHT22;8799;43.594;13.526;2022-10-26T11:15:31;21.30;99.90
17364;DHT22;8799;43.594;13.526;2022-10-26T11:18:04;21.30;99.90
17364;DHT22;8799;43.594;13.526;2022-10-26T11:20:35;21.30;99.90
17364;DHT22;8799;43.594;13.526;2022-10-26T11:23:09;21.30;99.90
17364;DHT22;8799;43.594;13.526;2022-10-26T11:25:45;21.30;99.90
17364;DHT22;8799;43.594;13.526;2022-10-26T11:28:22;21.30;99.90
17364;DHT22;8799;43.594;13.526;2022-10-26T11:30:58;21.30;99.90
17364;DHT22;8799;43.594;13.526;2022-10-26T11:33:29;21.30;99.90
17364;DHT22;8799;43.594;13.526;2022-10-26T11:36:03;21.30;99.90
17364;DHT22;8799;43.594;13.526;2022-10-26T11:38:37;21.30;99.90
17364;DHT22;8799;43.594;13.526;2022-10-26T11:41:11;21.30;99.90
17364;DHT22;8799;43.594;13.526;2022-10-26T11:43:44;21.30;99.90
17364;DHT22;8799;43.594;13.526;2022-10-26T11:46:15;21.30;99.90
17364;DHT22;8799;43.594;13.526;2022-10-26T11:48:49;21.30;99.90
17364;DHT22;8799;43.594;13.526;2022-10-26T11:51:30;21.30;99.90
17364;DHT22;8799;43.594;13.526;2022-10-26T11:54:03;21.40;99.90
17364;DHT22;8799;43.594;13.526;2022-10-26T11:56:38;21.30;99.90
17364;DHT22;8799;43.594;13.526;2022-10-26T11:59:16;21.30;99.90
17364;DHT22;8799;43.594;13.526;2022-10-26T12:01:46;21.40;99.90
17364;DHT22;8799;43.594;13.526;2022-10-26T12:04:16;21.30;99.90
17364;DHT22;8799;43.594;13.526;2022-10-26T12:06:47;21.40;99.90
17364;DHT22;8799;43.594;13.526;2022-10-26T12:09:19;21.40;99.90
17364;DHT22;8799;43.594;13.526;2022-10-26T12:11:52;21.40;99.90
17364;DHT22;8799;43.594;13.526;2022-10-26T12:14:27;21.40;99.90
17364;DHT22;8799;43.594;13.526;2022-10-26T12:17:04;21.30;99.90
17364;DHT22;8799;43.594;13.526;2022-10-26T12:19:38;21.30;99.90
17364;DHT22;8799;43.594;13.526;2022-10-26T12:22:12;21.30;99.90
17364;DHT22;8799;43.594;13.526;2022-10-26T12:24:43;21.30;99.90
17364;DHT22;8799;43.594;13.526;2022-10-26T12:27:30;21.30;99.90
17364;DHT22;8799;43.594;13.526;2022-10-26T12:30:25;21.30;99.90
17364;DHT22;8799;43.594;13.526;2022-10-26T12:32:54;21.30;99.90
17364;DHT22;8799;43.594;13.526;2022-10-26T12:35:30;21.40;99.90
17364;DHT22;8799;43.594;13.526;2022-10-26T12:37:59;21.30;99.90
17364;DHT22;8799;43.594;13.526;2022-10-26T12:40:41;21.30;99.90
17364;DHT22;8799;43.594;13.526;2022-10-26T12:43:35;21.30;99.90
17364;DHT22;8799;43.594;13.526;2022-10-26T12:52:39;21.40;99.90
17364;DHT22;8799;43.594;13.526;2022-10-26T12:58:34;21.40;99.90
17364;DHT22;8799;43.594;13.526;2022-10-26T13:01:26;21.40;99.90
17364;DHT22;8799;43.594;13.526;2022-10-26T13:04:07;21.40;99.90
17364;DHT22;8799;43.594;13.526;2022-10-26T13:06:48;21.40;99.90
17364;DHT22;8799;43.594;13.526;2022-10-26T13:09:22;21.40;99.90
17364;DHT22;8799;43.594;13.526;2022-10-26T13:11:52;21.40;99.90
17364;DHT22;8799;43.594;13.526;2022-10-26T13:14:24;21.40;99.90
17364;DHT22;8799;43.594;13.526;2022-10-26T13:16:54;21.40;99.90
17364;DHT22;8799;43.594;13.526;2022-10-26T13:19:30;21.30;99.90
17364;DHT22;8799;43.594;13.526;2022-10-26T13:22:03;21.40;99.90
17364;DHT22;8799;43.594;13.526;2022-10-26T13:24:33;21.30;99.90
17364;DHT22;8799;43.594;13.526;2022-10-26T13:27:21;21.40;99.90
17364;DHT22;8799;43.594;13.526;2022-10-26T13:30:17;21.40;99.90
17364;DHT22;8799;43.594;13.526;2022-10-26T13:32:49;21.40;99.90
17364;DHT22;8799;43.594;13.526;2022-10-26T13:35:20;21.40;99.90
17364;DHT22;8799;43.594;13.526;2022-10-26T13:37:51;21.40;99.90
17364;DHT22;8799;43.594;13.526;2022-10-26T13:40:23;21.40;99.90
17364;DHT22;8799;43.594;13.526;2022-10-26T13:42:54;21.30;99.90
17364;DHT22;8799;43.594;13.526;2022-10-26T13:45:26;21.40;99.90
17364;DHT22;8799;43.594;13.526;2022-10-26T13:47:57;21.40;99.90
17364;DHT22;8799;43.594;13.526;2022-10-26T13:50:31;21.40;99.90
17364;DHT22;8799;43.594;13.526;2022-10-26T13:53:05;21.40;99.90
17364;DHT22;8799;43.594;13.526;2022-10-26T13:55:42;21.40;99.90
17364;DHT22;8799;43.594;13.526;2022-10-26T13:58:17;21.40;99.90
17364;DHT22;8799;43.594;13.526;2022-10-26T14:01:00;21.40;99.90
17364;DHT22;8799;43.594;13.526;2022-10-26T14:03:28;21.40;99.90
17364;DHT22;8799;43.594;13.526;2022-10-26T14:05:56;21.40;99.90
17364;DHT22;8799;43.594;13.526;2022-10-26T14:08:25;21.40;99.90
17364;DHT22;8799;43.594;13.526;2022-10-26T14:10:56;21.40;99.90
17364;DHT22;8799;43.594;13.526;2022-10-26T14:13:26;21.40;99.90
17364;DHT22;8799;43.594;13.526;2022-10-26T14:15:57;21.40;99.90
17364;DHT22;8799;43.594;13.526;2022-10-26T14:18:27;21.40;99.90
17364;DHT22;8799;43.594;13.526;2022-10-26T14:20:59;21.40;99.90
17364;DHT22;8799;43.594;13.526;2022-10-26T14:23:31;21.40;99.90
17364;DHT22;8799;43.594;13.526;2022-10-26T14:26:01;21.30;99.90
17364;DHT22;8799;43.594;13.526;2022-10-26T14:28:30;21.30;99.90
17364;DHT22;8799;43.594;13.526;2022-10-26T14:31:11;21.30;99.90
17364;DHT22;8799;43.594;13.526;2022-10-26T14:33:40;21.30;99.90
17364;DHT22;8799;43.594;13.526;2022-10-26T14:36:08;21.30;99.90
17364;DHT22;8799;43.594;13.526;2022-10-26T14:38:41;21.30;99.90
17364;DHT22;8799;43.594;13.526;2022-10-26T14:41:12;21.30;99.90
17364;DHT22;8799;43.594;13.526;2022-10-26T14:43:43;21.30;99.90
17364;DHT22;8799;43.594;13.526;2022-10-26T14:46:13;21.30;99.90
17364;DHT22;8799;43.594;13.526;2022-10-26T14:48:51;21.30;99.90
17364;DHT22;8799;43.594;13.526;2022-10-26T14:51:24;21.30;99.90
17364;DHT22;8799;43.594;13.526;2022-10-26T14:53:54;21.30;99.90
17364;DHT22;8799;43.594;13.526;2022-10-26T14:56:27;21.30;99.90
17364;DHT22;8799;43.594;13.526;2022-10-26T14:58:57;21.30;99.90
17364;DHT22;8799;43.594;13.526;2022-10-26T15:01:30;21.30;99.90
17364;DHT22;8799;43.594;13.526;2022-10-26T15:04:01;21.30;99.90
17364;DHT22;8799;43.594;13.526;2022-10-26T15:06:42;21.30;99.90
17364;DHT22;8799;43.594;13.526;2022-10-26T15:09:27;21.30;99.90
17364;DHT22;8799;43.594;13.526;2022-10-26T15:11:57;21.30;99.90
17364;DHT22;8799;43.594;13.526;2022-10-26T15:14:25;21.30;99.90
17364;DHT22;8799;43.594;13.526;2022-10-26T15:16:55;21.30;99.90
17364;DHT22;8799;43.594;13.526;2022-10-26T15:19:25;21.30;99.90
17364;DHT22;8799;43.594;13.526;2022-10-26T15:21:54;21.30;99.90
17364;DHT22;8799;43.594;13.526;2022-10-26T15:24:31;21.30;99.90
17364;DHT22;8799;43.594;13.526;2022-10-26T15:27:01;21.30;99.90
17364;DHT22;8799;43.594;13.526;2022-10-26T15:29:42;21.30;99.90
17364;DHT22;8799;43.594;13.526;2022-10-26T15:32:20;21.30;99.90
17364;DHT22;8799;43.594;13.526;2022-10-26T15:34:49;21.30;99.90
17364;DHT22;8799;43.594;13.526;2022-10-26T15:37:31;21.30;99.90
17364;DHT22;8799;43.594;13.526;2022-10-26T15:40:00;21.30;99.90
17364;DHT22;8799;43.594;13.526;2022-10-26T15:42:29;21.30;99.90
17364;DHT22;8799;43.594;13.526;2022-10-26T15:44:58;21.30;99.90
17364;DHT22;8799;43.594;13.526;2022-10-26T15:47:30;21.30;99.90
17364;DHT22;8799;43.594;13.526;2022-10-26T15:49:59;21.30;99.90
17364;DHT22;8799;43.594;13.526;2022-10-26T15:52:28;21.20;99.90
17364;DHT22;8799;43.594;13.526;2022-10-26T15:54:56;21.30;99.90
17364;DHT22;8799;43.594;13.526;2022-10-26T15:57:24;21.30;99.90
17364;DHT22;8799;43.594;13.526;2022-10-26T15:59:54;21.30;99.90
17364;DHT22;8799;43.594;13.526;2022-10-26T16:02:22;21.30;99.90
17364;DHT22;8799;43.594;13.526;2022-10-26T16:04:50;21.30;99.90
17364;DHT22;8799;43.594;13.526;2022-10-26T16:07:24;21.30;99.90
17364;DHT22;8799;43.594;13.526;2022-10-26T16:09:53;21.30;99.90
17364;DHT22;8799;43.594;13.526;2022-10-26T16:12:22;21.30;99.90
17364;DHT22;8799;43.594;13.526;2022-10-26T16:14:49;21.30;99.90
17364;DHT22;8799;43.594;13.526;2022-10-26T16:17:19;21.30;99.90
17364;DHT22;8799;43.594;13.526;2022-10-26T16:19:47;21.30;99.90
17364;DHT22;8799;43.594;13.526;2022-10-26T16:22:15;21.30;99.90
17364;DHT22;8799;43.594;13.526;2022-10-26T16:24:43;21.30;99.90